createdAt,value
2022-11-08T00:01:59.370Z,81.02
2022-11-08T00:06:57.978Z,81.00
2022-11-08T00:11:58.551Z,81.81
2022-11-08T00:16:58.028Z,81.44
2022-11-08T00:21:58.037Z,81.76
2022-11-08T00:26:58.060Z,82.05
2022-11-08T00:31:58.049Z,82.28
2022-11-08T00:36:58.110Z,82.75
2022-11-08T00:41:58.201Z,82.85
2022-11-08T00:46:58.103Z,82.85
2022-11-08T00:51:58.118Z,83.15
2022-11-08T00:56:58.133Z,82.79
2022-11-08T01:01:59.482Z,82.95
2022-11-08T01:06:58.158Z,82.72
2022-11-08T01:11:58.159Z,82.91
2022-11-08T01:16:58.150Z,83.38
2022-11-08T01:21:58.155Z,83.76
2022-11-08T01:26:58.196Z,83.10
2022-11-08T01:31:58.253Z,83.81
2022-11-08T01:36:58.208Z,83.21
2022-11-08T01:41:58.201Z,83.38
2022-11-08T01:46:58.211Z,84.14
2022-11-08T01:52:08.187Z,84.45
2022-11-08T01:57:01.637Z,83.58
2022-11-08T02:01:58.880Z,84.19
2022-11-08T02:06:59.754Z,83.83
2022-11-08T02:11:58.627Z,83.71
2022-11-08T02:16:58.345Z,84.42
2022-11-08T02:22:04.299Z,84.19
2022-11-08T02:26:59.490Z,84.40
2022-11-08T02:32:00.022Z,84.85
2022-11-08T02:36:58.815Z,84.79
2022-11-08T02:41:58.429Z,84.85
2022-11-08T02:46:58.356Z,84.99
2022-11-08T02:51:58.373Z,85.42
2022-11-08T02:56:58.501Z,85.14
2022-11-08T03:01:59.066Z,85.02
2022-11-08T03:06:58.459Z,84.71
2022-11-08T03:11:58.408Z,84.83
2022-11-08T03:16:58.425Z,84.69
2022-11-08T03:21:58.419Z,84.05
2022-11-08T03:26:59.207Z,84.15
2022-11-08T03:31:58.485Z,84.34
2022-11-08T03:36:58.457Z,84.40
2022-11-08T03:41:58.763Z,84.63
2022-11-08T03:46:59.672Z,84.64
2022-11-08T03:51:58.509Z,84.51
2022-11-08T03:56:58.559Z,84.67
2022-11-08T04:01:59.965Z,84.17
2022-11-08T04:06:58.533Z,84.25
2022-11-08T04:11:58.542Z,84.10
2022-11-08T04:16:58.567Z,83.81
2022-11-08T04:21:58.722Z,83.87
2022-11-08T04:26:58.671Z,83.97
2022-11-08T04:31:58.636Z,83.49
2022-11-08T04:36:58.604Z,83.01
2022-11-08T04:42:02.090Z,82.57
2022-11-08T04:46:58.636Z,82.27
2022-11-08T04:51:58.653Z,81.82
2022-11-08T04:56:58.656Z,81.60
2022-11-08T05:02:00.087Z,81.65
2022-11-08T05:06:58.693Z,81.66
2022-11-08T05:11:58.703Z,81.60
2022-11-08T05:16:58.690Z,81.58
2022-11-08T05:21:58.687Z,81.49
2022-11-08T05:26:58.704Z,81.39
2022-11-08T05:31:58.778Z,81.05
2022-11-08T05:36:58.716Z,80.76
2022-11-08T05:41:58.756Z,80.35
2022-11-08T05:46:58.781Z,80.26
2022-11-08T05:51:58.784Z,80.22
2022-11-08T05:56:58.755Z,79.84
2022-11-08T06:01:59.403Z,79.93
2022-11-08T06:06:58.791Z,80.17
2022-11-08T06:11:58.840Z,80.00
2022-11-08T06:16:58.826Z,80.15
2022-11-08T06:21:58.818Z,79.79
2022-11-08T06:26:58.880Z,79.39
2022-11-08T06:31:58.861Z,79.42
2022-11-08T06:36:58.886Z,79.29
2022-11-08T06:41:59.367Z,78.67
2022-11-08T06:46:58.912Z,78.94
2022-11-08T06:51:58.927Z,79.05
2022-11-08T06:56:58.976Z,78.76
2022-11-08T07:01:59.462Z,78.21
2022-11-08T07:06:58.934Z,78.38
2022-11-08T07:11:58.969Z,78.06
2022-11-08T07:16:58.948Z,77.57
2022-11-08T07:21:58.954Z,77.67
2022-11-08T07:26:59.010Z,77.08
2022-11-08T07:31:59.011Z,77.11
2022-11-08T07:36:59.013Z,76.78
2022-11-08T07:41:59.016Z,76.49
2022-11-08T07:46:59.015Z,76.00
2022-11-08T07:51:59.057Z,75.50
2022-11-08T07:56:59.052Z,76.19
2022-11-08T08:01:59.709Z,75.18
2022-11-08T08:06:59.068Z,75.49
2022-11-08T08:11:59.493Z,74.68
2022-11-08T08:16:59.107Z,75.17
2022-11-08T08:21:59.130Z,74.26
2022-11-08T08:26:59.139Z,74.22
2022-11-08T08:31:59.129Z,74.45
2022-11-08T08:36:59.133Z,73.67
2022-11-08T08:41:59.141Z,73.98
2022-11-08T08:46:59.173Z,73.55
2022-11-08T08:51:59.179Z,72.90
2022-11-08T08:56:59.162Z,72.64
2022-11-08T09:02:00.102Z,73.44
2022-11-08T09:06:59.261Z,73.24
2022-11-08T09:11:59.317Z,72.35
2022-11-08T09:16:59.288Z,72.20
2022-11-08T09:21:59.340Z,71.65
2022-11-08T09:26:59.575Z,71.11
2022-11-08T09:31:59.938Z,72.13
2022-11-08T09:36:59.299Z,71.50
2022-11-08T09:42:11.491Z,71.45
2022-11-08T09:47:07.879Z,70.33
2022-11-08T09:52:01.663Z,70.62
2022-11-08T09:57:00.958Z,69.85
2022-11-08T10:01:59.979Z,69.40
2022-11-08T10:07:09.434Z,68.83
2022-11-08T10:12:09.375Z,68.50
2022-11-08T10:17:05.873Z,69.02
2022-11-08T10:22:08.222Z,67.45
2022-11-08T10:26:59.710Z,67.76
2022-11-08T10:32:11.573Z,67.46
2022-11-08T10:37:03.795Z,66.53
2022-11-08T10:42:05.015Z,66.82
2022-11-08T10:47:03.348Z,66.84
2022-11-08T10:52:16.431Z,66.99
2022-11-08T10:56:59.490Z,67.09
2022-11-08T11:02:01.057Z,66.47
2022-11-08T11:07:01.592Z,67.13
2022-11-08T11:12:05.507Z,66.49
2022-11-08T11:17:02.724Z,66.15
2022-11-08T11:22:04.342Z,66.22
2022-11-08T11:27:01.188Z,67.32
2022-11-08T11:32:19.452Z,66.87
2022-11-08T11:37:03.936Z,65.96
2022-11-08T11:42:39.400Z,66.49
2022-11-08T11:47:05.682Z,65.07
2022-11-08T11:51:59.616Z,64.30
2022-11-08T11:57:06.588Z,62.93
2022-11-08T12:02:07.364Z,63.69
2022-11-08T12:07:10.353Z,63.71
2022-11-08T12:12:11.491Z,63.78
2022-11-08T12:17:09.574Z,60.79
2022-11-08T12:22:12.862Z,61.27
2022-11-08T12:27:08.923Z,62.60
2022-11-08T12:32:09.631Z,63.78
2022-11-08T12:37:10.657Z,64.05
2022-11-08T12:42:12.892Z,64.51
2022-11-08T12:47:18.647Z,63.95
2022-11-08T12:52:17.169Z,64.39
2022-11-08T12:57:03.171Z,64.13
2022-11-08T13:02:02.780Z,64.04
2022-11-08T13:07:17.037Z,64.39
2022-11-08T13:12:15.201Z,64.13
2022-11-08T13:17:12.987Z,64.50
2022-11-08T13:21:59.808Z,64.23
2022-11-08T13:27:19.702Z,63.50
2022-11-08T13:32:05.081Z,63.72
2022-11-08T13:37:11.435Z,63.89
2022-11-08T13:42:12.656Z,64.21
2022-11-08T13:46:59.834Z,63.96
2022-11-08T13:52:19.746Z,62.20
2022-11-08T13:57:00.868Z,63.60
2022-11-08T14:02:03.636Z,63.15
2022-11-08T14:07:24.856Z,62.80
2022-11-08T14:12:05.669Z,63.31
2022-11-08T14:17:19.818Z,63.85
2022-11-08T14:22:00.484Z,64.80
2022-11-08T14:27:00.155Z,64.83
2022-11-08T14:32:06.887Z,65.29
2022-11-08T14:37:00.844Z,65.65
2022-11-08T14:42:01.631Z,65.40
2022-11-08T14:46:59.979Z,65.70
2022-11-08T14:52:13.357Z,65.98
2022-11-08T14:56:59.987Z,66.06
2022-11-08T15:02:00.471Z,66.32
2022-11-08T15:07:00.258Z,66.61
2022-11-08T15:12:04.242Z,66.40
2022-11-08T15:17:03.352Z,66.24
2022-11-08T15:22:02.684Z,66.56
2022-11-08T15:27:12.927Z,66.53
2022-11-08T15:32:01.731Z,66.99
2022-11-08T15:37:00.105Z,67.01
2022-11-08T15:42:02.458Z,67.20
2022-11-08T15:47:00.122Z,67.74
2022-11-08T15:52:00.106Z,67.92
2022-11-08T15:57:00.135Z,68.42
2022-11-08T16:02:03.226Z,68.59
2022-11-08T16:07:00.377Z,69.13
2022-11-08T16:12:01.769Z,69.03
2022-11-08T16:17:00.195Z,69.57
2022-11-08T16:22:00.167Z,70.18
2022-11-08T16:27:00.423Z,70.38
2022-11-08T16:32:00.236Z,70.62
2022-11-08T16:37:00.218Z,71.28
2022-11-08T16:42:00.316Z,71.45
2022-11-08T16:47:00.251Z,71.34
2022-11-08T16:52:00.248Z,71.43
2022-11-08T16:57:34.061Z,71.35
2022-11-08T17:02:00.771Z,71.49
2022-11-08T17:07:00.365Z,71.96
2022-11-08T17:12:00.369Z,72.07
2022-11-08T17:17:00.340Z,72.45
2022-11-08T17:22:00.341Z,72.61
2022-11-08T17:27:00.334Z,72.50
2022-11-08T17:32:00.422Z,72.29
2022-11-08T17:37:00.331Z,72.46
2022-11-08T17:42:00.528Z,72.70
2022-11-08T17:47:00.384Z,72.71
2022-11-08T17:52:00.371Z,73.05
2022-11-08T17:57:00.410Z,73.26
2022-11-08T18:02:01.790Z,73.38
2022-11-08T18:07:00.493Z,73.65
2022-11-08T18:12:00.642Z,73.66
2022-11-08T18:17:00.549Z,73.96
2022-11-08T18:22:00.481Z,74.09
2022-11-08T18:27:00.448Z,74.06
2022-11-08T18:32:00.502Z,74.32
2022-11-08T18:37:00.491Z,74.19
2022-11-08T18:42:00.522Z,74.38
2022-11-08T18:47:00.548Z,74.30
2022-11-08T18:52:00.514Z,74.11
2022-11-08T18:57:00.524Z,74.18
2022-11-08T19:02:01.223Z,74.24
2022-11-08T19:07:01.215Z,74.22
2022-11-08T19:12:05.491Z,74.50
2022-11-08T19:17:00.668Z,74.33
2022-11-08T19:22:00.577Z,74.49
2022-11-08T19:27:00.627Z,74.52
2022-11-08T19:32:00.629Z,74.72
2022-11-08T19:37:00.606Z,74.92
2022-11-08T19:42:00.658Z,74.90
2022-11-08T19:47:00.700Z,75.07
2022-11-08T19:52:00.813Z,75.28
2022-11-08T19:57:05.572Z,75.37
2022-11-08T20:02:01.276Z,75.58
2022-11-08T20:07:00.771Z,75.31
2022-11-08T20:12:00.689Z,75.95
2022-11-08T20:17:00.714Z,75.91
2022-11-08T20:22:00.714Z,75.76
2022-11-08T20:27:00.773Z,75.56
2022-11-08T20:32:00.848Z,75.69
2022-11-08T20:37:00.760Z,75.97
2022-11-08T20:42:00.761Z,75.90
2022-11-08T20:47:06.295Z,75.73
2022-11-08T20:52:00.795Z,76.12
2022-11-08T20:57:00.815Z,76.02
2022-11-08T21:02:02.111Z,75.87
2022-11-08T21:08:00.371Z,76.31
2022-11-08T21:12:00.871Z,76.21
2022-11-08T21:17:21.397Z,76.67
2022-11-08T21:22:00.853Z,77.04
2022-11-08T21:27:00.862Z,76.86
2022-11-08T21:32:01.017Z,76.95
2022-11-08T21:37:00.940Z,77.26
2022-11-08T21:42:00.915Z,77.08
2022-11-08T21:47:00.894Z,77.59
2022-11-08T21:52:00.938Z,77.58
2022-11-08T21:57:01.018Z,77.40
2022-11-08T22:02:02.630Z,77.99
2022-11-08T22:07:00.968Z,77.81
2022-11-08T22:12:00.978Z,78.08
2022-11-08T22:17:00.980Z,77.85
2022-11-08T22:22:01.009Z,77.95
2022-11-08T22:27:01.101Z,78.10
2022-11-08T22:32:01.357Z,78.47
2022-11-08T22:37:01.032Z,78.08
2022-11-08T22:42:01.086Z,77.90
2022-11-08T22:47:01.118Z,78.05
2022-11-08T22:52:01.069Z,77.61
2022-11-08T22:57:01.076Z,77.99
2022-11-08T23:02:01.595Z,77.93
2022-11-08T23:07:01.185Z,78.46
2022-11-08T23:12:02.473Z,78.20
2022-11-08T23:17:01.656Z,77.90
2022-11-08T23:22:03.331Z,78.31
2022-11-08T23:27:02.092Z,78.78
2022-11-08T23:32:01.158Z,78.41
2022-11-08T23:37:01.311Z,78.94
2022-11-08T23:42:01.157Z,78.99
2022-11-08T23:47:01.204Z,79.49
2022-11-08T23:52:01.190Z,78.93
2022-11-08T23:57:01.206Z,78.53
